createdAt,value
2022-10-14T00:00:04.671Z,6.30
2022-10-14T00:02:31.290Z,5.40
2022-10-14T00:04:57.889Z,5.67
2022-10-14T00:07:24.488Z,5.40
2022-10-14T00:09:51.107Z,5.30
2022-10-14T00:12:17.710Z,5.73
2022-10-14T00:14:44.315Z,5.63
2022-10-14T00:17:10.933Z,5.90
2022-10-14T00:19:37.811Z,5.83
2022-10-14T00:22:04.426Z,4.90
2022-10-14T00:24:31.034Z,6.30
2022-10-14T00:26:57.624Z,5.53
2022-10-14T00:29:24.254Z,5.13
2022-10-14T00:31:51.893Z,5.87
2022-10-14T00:34:18.503Z,6.57
2022-10-14T00:36:45.327Z,5.57
2022-10-14T00:39:12.073Z,5.60
2022-10-14T00:41:39.225Z,5.53
2022-10-14T00:44:10.381Z,5.80
2022-10-14T00:46:45.874Z,6.23
2022-10-14T00:49:18.718Z,5.80
2022-10-14T00:52:08.153Z,6.00
2022-10-14T00:54:41.987Z,5.30
2022-10-14T00:57:09.467Z,5.63
2022-10-14T00:59:36.393Z,5.97
2022-10-14T01:02:03.961Z,5.80
2022-10-14T01:04:31.203Z,6.80
2022-10-14T01:07:13.231Z,6.13
2022-10-14T01:10:06.616Z,5.67
2022-10-14T01:12:33.178Z,5.80
2022-10-14T01:15:11.830Z,6.03
2022-10-14T01:18:19.462Z,6.10
2022-10-14T01:21:13.195Z,6.37
2022-10-14T01:24:01.160Z,5.57
2022-10-14T01:27:12.962Z,6.27
2022-10-14T01:29:51.702Z,6.50
2022-10-14T01:32:29.198Z,5.53
2022-10-14T01:35:06.869Z,6.83
2022-10-14T01:37:37.050Z,6.83
2022-10-14T01:40:12.277Z,6.70
2022-10-14T01:42:41.390Z,7.00
2022-10-14T01:45:15.614Z,6.90
2022-10-14T01:47:43.536Z,6.70
2022-10-14T01:50:15.708Z,7.80
2022-10-14T01:53:05.242Z,7.83
2022-10-14T01:55:36.402Z,7.00
2022-10-14T01:58:05.525Z,6.77
2022-10-14T02:00:32.114Z,6.77
2022-10-14T02:02:58.721Z,7.60
2022-10-14T02:05:28.107Z,7.40
2022-10-14T02:08:17.813Z,7.90
2022-10-14T02:11:11.179Z,8.00
2022-10-14T02:13:56.165Z,7.53
2022-10-14T02:16:38.825Z,6.50
2022-10-14T02:19:20.605Z,7.30
2022-10-14T02:21:58.240Z,6.67
2022-10-14T02:24:33.649Z,6.77
2022-10-14T02:27:03.900Z,6.47
2022-10-14T02:29:32.268Z,6.87
2022-10-14T02:32:00.484Z,7.20
2022-10-14T02:34:27.349Z,7.80
2022-10-14T02:36:55.414Z,7.03
2022-10-14T02:39:30.590Z,7.03
2022-10-14T02:41:57.407Z,7.00
2022-10-14T02:44:24.120Z,7.93
2022-10-14T02:46:50.799Z,8.50
2022-10-14T02:49:18.186Z,8.03
2022-10-14T02:51:44.800Z,9.17
2022-10-14T02:54:11.628Z,9.27
2022-10-14T02:56:38.274Z,8.57
2022-10-14T02:59:05.023Z,10.07
2022-10-14T03:01:35.181Z,8.53
2022-10-14T03:04:04.067Z,9.77
2022-10-14T03:06:30.724Z,11.20
2022-10-14T03:08:57.333Z,9.93
2022-10-14T03:11:23.927Z,9.10
2022-10-14T03:13:50.554Z,10.07
2022-10-14T03:16:17.165Z,9.77
2022-10-14T03:18:43.821Z,9.50
2022-10-14T03:21:10.961Z,9.47
2022-10-14T03:23:37.552Z,10.10
2022-10-14T03:26:04.973Z,10.20
2022-10-14T03:28:31.735Z,9.50
2022-10-14T03:30:58.381Z,9.27
2022-10-14T03:33:26.132Z,9.13
2022-10-14T03:35:53.411Z,9.40
2022-10-14T03:38:20.066Z,9.80
2022-10-14T03:40:46.687Z,9.90
2022-10-14T03:43:13.353Z,9.67
2022-10-14T03:45:40.134Z,8.97
2022-10-14T03:48:06.924Z,9.50
2022-10-14T03:50:33.633Z,11.93
2022-10-14T03:53:00.244Z,10.10
2022-10-14T03:55:26.827Z,11.33
2022-10-14T03:57:53.562Z,11.60
2022-10-14T04:00:29.531Z,10.53
2022-10-14T04:02:56.146Z,11.43
2022-10-14T04:05:22.774Z,11.20
2022-10-14T04:07:49.602Z,10.30
2022-10-14T04:10:16.306Z,9.67
2022-10-14T04:12:43.898Z,9.93
2022-10-14T04:15:10.834Z,10.93
2022-10-14T04:17:37.427Z,9.80
2022-10-14T04:20:04.434Z,10.53
2022-10-14T04:22:31.319Z,12.70
2022-10-14T04:24:57.891Z,11.17
2022-10-14T04:27:24.611Z,9.97
2022-10-14T04:29:52.765Z,10.40
2022-10-14T04:32:20.359Z,11.60
2022-10-14T04:34:47.202Z,10.40
2022-10-14T04:37:13.826Z,10.33
2022-10-14T04:39:40.563Z,11.40
2022-10-14T04:42:07.139Z,10.17
2022-10-14T04:44:33.827Z,11.37
2022-10-14T04:47:00.518Z,10.20
2022-10-14T04:49:27.381Z,8.63
2022-10-14T04:51:53.996Z,12.10
2022-10-14T04:54:20.679Z,11.37
2022-10-14T04:56:47.293Z,10.47
2022-10-14T04:59:13.999Z,11.10
2022-10-14T05:01:40.706Z,10.93
2022-10-14T05:04:07.335Z,12.20
2022-10-14T05:06:33.966Z,11.50
2022-10-14T05:09:00.664Z,12.33
2022-10-14T05:11:27.268Z,12.47
2022-10-14T05:13:53.872Z,11.87
2022-10-14T05:16:20.482Z,10.77
2022-10-14T05:18:47.090Z,12.10
2022-10-14T05:21:13.915Z,11.57
2022-10-14T05:23:40.579Z,11.27
2022-10-14T05:26:07.285Z,12.60
2022-10-14T05:28:33.945Z,11.77
2022-10-14T05:31:00.613Z,12.80
2022-10-14T05:33:27.241Z,14.00
2022-10-14T05:35:59.190Z,11.87
2022-10-14T05:38:26.774Z,13.90
2022-10-14T05:40:57.397Z,13.17
2022-10-14T05:43:31.991Z,10.77
2022-10-14T05:45:59.731Z,11.17
2022-10-14T05:48:26.491Z,13.87
2022-10-14T05:50:53.109Z,11.53
2022-10-14T05:53:19.924Z,13.43
2022-10-14T05:55:46.705Z,11.93
2022-10-14T05:58:13.323Z,12.30
2022-10-14T06:00:40.051Z,12.37
2022-10-14T06:03:06.826Z,11.17
2022-10-14T06:05:36.819Z,10.17
2022-10-14T06:08:03.788Z,12.43
2022-10-14T06:10:30.554Z,12.03
2022-10-14T06:12:57.365Z,12.37
2022-10-14T06:15:23.991Z,11.57
2022-10-14T06:17:50.612Z,11.13
2022-10-14T06:20:17.330Z,11.50
2022-10-14T06:22:44.005Z,12.23
2022-10-14T06:25:10.757Z,12.43
2022-10-14T06:27:37.487Z,11.90
2022-10-14T06:30:04.904Z,11.03
2022-10-14T06:32:31.561Z,12.23
2022-10-14T06:34:58.220Z,11.93
2022-10-14T06:37:24.874Z,12.43
2022-10-14T06:39:51.505Z,9.80
2022-10-14T06:42:18.172Z,10.87
2022-10-14T06:44:45.280Z,10.57
2022-10-14T06:47:11.891Z,11.77
2022-10-14T06:49:38.513Z,13.30
2022-10-14T06:52:05.251Z,11.20
2022-10-14T06:54:36.796Z,11.00
2022-10-14T06:57:06.176Z,11.03
2022-10-14T06:59:32.894Z,11.37
2022-10-14T07:01:59.558Z,11.23
2022-10-14T07:04:26.309Z,11.50
2022-10-14T07:06:53.048Z,11.20
2022-10-14T07:09:19.747Z,9.47
2022-10-14T07:11:46.396Z,11.73
2022-10-14T07:14:13.000Z,10.70
2022-10-14T07:16:39.657Z,10.50
2022-10-14T07:19:06.383Z,11.20
2022-10-14T07:21:33.052Z,10.83
2022-10-14T07:23:59.664Z,11.07
2022-10-14T07:26:26.350Z,11.87
2022-10-14T07:28:53.095Z,11.13
2022-10-14T07:31:19.742Z,11.50
2022-10-14T07:33:46.419Z,10.67
2022-10-14T07:36:18.474Z,10.90
2022-10-14T07:38:48.392Z,10.30
2022-10-14T07:41:18.703Z,10.67
2022-10-14T07:43:48.051Z,10.73
2022-10-14T07:46:16.275Z,11.80
2022-10-14T07:48:56.753Z,11.07
2022-10-14T07:51:24.209Z,10.83
2022-10-14T07:53:52.918Z,11.63
2022-10-14T07:56:20.117Z,12.47
2022-10-14T07:58:46.913Z,10.57
2022-10-14T08:01:15.637Z,10.93
2022-10-14T08:03:46.969Z,11.53
2022-10-14T08:06:14.805Z,10.20
2022-10-14T08:08:41.643Z,9.30
2022-10-14T08:11:14.868Z,10.13
2022-10-14T08:13:45.283Z,9.97
2022-10-14T08:16:14.052Z,9.97
2022-10-14T08:18:41.028Z,11.27
2022-10-14T08:21:07.824Z,11.23
2022-10-14T08:23:34.721Z,9.60
2022-10-14T08:26:01.805Z,9.10
2022-10-14T08:28:28.657Z,9.60
2022-10-14T08:30:55.390Z,10.37
2022-10-14T08:33:22.163Z,9.17
2022-10-14T08:35:53.065Z,9.03
2022-10-14T08:38:25.099Z,8.87
2022-10-14T08:41:13.091Z,9.60
2022-10-14T08:43:52.033Z,9.60
2022-10-14T08:46:27.906Z,9.63
2022-10-14T08:49:02.408Z,8.60
2022-10-14T08:51:31.849Z,9.33
2022-10-14T08:54:08.739Z,9.30
2022-10-14T08:56:37.847Z,7.83
2022-10-14T08:59:15.017Z,8.20
2022-10-14T09:02:04.526Z,7.57
2022-10-14T09:04:35.811Z,7.20
2022-10-14T09:07:03.111Z,7.70
2022-10-14T09:09:43.871Z,7.30
2022-10-14T09:12:17.378Z,7.00
2022-10-14T09:14:59.677Z,7.40
2022-10-14T09:17:56.041Z,6.63
2022-10-14T09:20:24.756Z,8.23
2022-10-14T09:23:15.310Z,8.10
2022-10-14T09:25:59.565Z,7.30
2022-10-14T09:28:45.776Z,7.20
2022-10-14T09:31:14.150Z,6.27
2022-10-14T09:33:43.015Z,7.00
2022-10-14T09:36:17.463Z,7.87
2022-10-14T09:38:52.460Z,7.23
2022-10-14T09:41:25.385Z,7.13
2022-10-14T09:44:13.655Z,7.07
2022-10-14T09:46:40.527Z,7.07
2022-10-14T09:49:16.797Z,6.17
2022-10-14T09:51:44.187Z,5.93
2022-10-14T09:54:22.787Z,6.43
2022-10-14T09:56:49.969Z,5.90
2022-10-14T09:59:21.780Z,6.50
2022-10-14T10:02:05.474Z,6.47
2022-10-14T10:04:32.027Z,6.37
2022-10-14T10:07:01.514Z,6.30
2022-10-14T10:09:28.611Z,6.50
2022-10-14T10:11:55.830Z,6.67
2022-10-14T10:14:25.226Z,6.00
2022-10-14T10:17:12.761Z,6.53
2022-10-14T10:19:44.153Z,6.57
2022-10-14T10:24:45.539Z,6.93
2022-10-14T10:27:24.337Z,5.83
2022-10-14T10:29:51.363Z,5.93
2022-10-14T10:32:49.770Z,6.20
2022-10-14T10:35:43.462Z,7.10
2022-10-14T10:38:21.005Z,5.73
2022-10-14T10:41:21.809Z,5.83
2022-10-14T10:44:11.998Z,5.90
2022-10-14T10:46:55.133Z,5.33
2022-10-14T10:50:08.658Z,5.43
2022-10-14T10:53:01.206Z,4.63
2022-10-14T10:55:39.914Z,6.10
2022-10-14T10:58:37.435Z,5.87
2022-10-14T11:01:13.286Z,5.43
2022-10-14T11:03:49.443Z,6.57
2022-10-14T11:06:55.894Z,6.13
2022-10-14T11:10:01.769Z,5.30
2022-10-14T11:12:48.012Z,5.23
2022-10-14T11:15:39.467Z,6.00
2022-10-14T11:18:47.584Z,4.80
2022-10-14T11:21:21.882Z,5.00
2022-10-14T11:24:08.757Z,5.23
2022-10-14T11:26:38.596Z,4.40
2022-10-14T11:29:20.348Z,4.70
2022-10-14T11:32:18.660Z,4.57
2022-10-14T11:35:05.979Z,4.10
2022-10-14T11:38:00.217Z,4.07
2022-10-14T11:40:36.761Z,3.23
2022-10-14T11:43:28.126Z,2.57
2022-10-14T11:46:00.258Z,2.60
2022-10-14T11:48:30.005Z,2.90
2022-10-14T11:51:12.454Z,2.43
2022-10-14T11:54:00.928Z,2.70
2022-10-14T11:56:45.693Z,2.67
2022-10-14T11:59:42.829Z,3.70
2022-10-14T12:02:56.010Z,2.20
2022-10-14T12:05:47.576Z,2.80
2022-10-14T12:08:27.033Z,2.20
2022-10-14T12:11:10.795Z,2.10
2022-10-14T12:13:52.691Z,1.70
2022-10-14T12:16:22.762Z,1.77
2022-10-14T12:18:54.385Z,2.10
2022-10-14T12:21:50.853Z,1.60
2022-10-14T12:24:21.479Z,1.87
2022-10-14T12:27:04.663Z,1.47
2022-10-14T12:29:46.000Z,1.40
2022-10-14T12:32:30.801Z,1.57
2022-10-14T12:35:02.140Z,1.60
2022-10-14T12:37:32.349Z,1.37
2022-10-14T12:40:02.569Z,1.37
2022-10-14T12:42:31.201Z,1.47
2022-10-14T12:45:01.552Z,1.60
2022-10-14T12:47:33.529Z,1.47
2022-10-14T12:50:02.938Z,1.20
2022-10-14T12:52:35.806Z,1.10
2022-10-14T12:55:14.720Z,1.30
2022-10-14T12:57:42.413Z,1.10
2022-10-14T13:00:24.184Z,1.10
2022-10-14T13:02:56.309Z,1.40
2022-10-14T13:05:37.780Z,1.20
2022-10-14T13:08:12.473Z,1.30
2022-10-14T13:10:45.040Z,1.40
2022-10-14T13:13:52.171Z,1.30
2022-10-14T13:16:24.675Z,1.10
2022-10-14T13:19:02.198Z,0.97
2022-10-14T13:21:34.833Z,1.00
2022-10-14T13:24:03.115Z,1.20
2022-10-14T13:26:51.327Z,0.93
2022-10-14T13:29:20.960Z,1.30
2022-10-14T13:32:12.280Z,1.13
2022-10-14T13:34:47.678Z,1.20
2022-10-14T13:37:17.383Z,1.00
2022-10-14T13:39:44.074Z,1.10
2022-10-14T13:42:33.808Z,0.90
2022-10-14T13:45:07.366Z,1.10
2022-10-14T13:47:34.881Z,0.83
2022-10-14T13:50:04.692Z,0.90
2022-10-14T13:52:34.273Z,0.83
2022-10-14T13:55:14.149Z,0.97
2022-10-14T13:58:10.880Z,0.70
2022-10-14T14:00:43.130Z,0.70
2022-10-14T14:03:23.601Z,0.77
2022-10-14T14:05:51.081Z,0.80
2022-10-14T14:08:42.397Z,1.13
2022-10-14T14:11:20.913Z,1.07
2022-10-14T14:14:06.715Z,0.73
2022-10-14T14:16:37.909Z,0.80
2022-10-14T14:19:09.481Z,0.87
2022-10-14T14:21:37.139Z,1.40
2022-10-14T14:24:14.545Z,1.20
2022-10-14T14:26:41.308Z,1.30
2022-10-14T14:29:25.636Z,1.20
2022-10-14T14:32:08.595Z,0.90
2022-10-14T14:34:37.995Z,0.80
2022-10-14T14:37:23.505Z,0.97
2022-10-14T14:40:25.712Z,0.80
2022-10-14T14:42:59.311Z,0.80
2022-10-14T14:45:32.289Z,0.77
2022-10-14T14:48:03.268Z,0.80
2022-10-14T14:50:38.527Z,1.13
2022-10-14T14:53:11.823Z,0.80
2022-10-14T14:55:54.279Z,0.87
2022-10-14T14:58:34.223Z,0.90
2022-10-14T15:01:01.061Z,0.90
2022-10-14T15:03:31.361Z,0.83
2022-10-14T15:06:03.958Z,0.83
2022-10-14T15:08:37.855Z,0.77
2022-10-14T15:11:04.874Z,0.80
2022-10-14T15:13:39.151Z,0.73
2022-10-14T15:16:06.940Z,1.07
2022-10-14T15:18:37.453Z,0.90
2022-10-14T15:21:12.189Z,0.80
2022-10-14T15:23:43.158Z,0.80
2022-10-14T15:26:33.508Z,0.80
2022-10-14T15:32:14.887Z,0.90
2022-10-14T15:34:41.729Z,1.20
2022-10-14T15:37:13.346Z,1.30
2022-10-14T15:39:40.053Z,1.10
2022-10-14T15:42:12.799Z,1.00
2022-10-14T15:44:39.468Z,1.07
2022-10-14T15:47:21.024Z,1.70
2022-10-14T15:49:47.822Z,1.30
2022-10-14T15:52:16.551Z,1.33
2022-10-14T15:54:45.728Z,1.20
2022-10-14T15:57:15.598Z,1.17
2022-10-14T15:59:43.496Z,1.30
2022-10-14T16:02:21.771Z,1.00
2022-10-14T16:05:18.332Z,0.93
2022-10-14T16:07:38.415Z,1.10
2022-10-14T16:10:06.852Z,1.00
2022-10-14T16:12:33.788Z,1.00
2022-10-14T16:15:02.018Z,1.33
2022-10-14T16:17:28.885Z,0.90
2022-10-14T16:19:55.927Z,0.87
2022-10-14T16:22:22.542Z,0.90
2022-10-14T16:24:49.187Z,0.83
2022-10-14T16:27:16.479Z,0.70
2022-10-14T16:29:43.167Z,0.60
2022-10-14T16:32:12.155Z,1.10
2022-10-14T16:34:38.804Z,1.07
2022-10-14T16:37:07.130Z,1.30
2022-10-14T16:39:33.892Z,1.30
2022-10-14T16:42:00.608Z,0.90
2022-10-14T16:44:27.691Z,1.03
2022-10-14T16:47:14.970Z,1.00
2022-10-14T16:49:44.006Z,1.23
2022-10-14T16:52:11.055Z,1.30
2022-10-14T16:54:37.775Z,1.20
2022-10-14T16:57:04.683Z,1.30
2022-10-14T16:59:31.996Z,1.00
2022-10-14T17:01:58.843Z,1.73
2022-10-14T17:04:26.107Z,1.40
2022-10-14T17:06:53.773Z,1.40
2022-10-14T17:09:21.190Z,1.90
2022-10-14T17:11:49.978Z,2.13
2022-10-14T17:14:21.738Z,1.80
2022-10-14T17:16:52.170Z,2.00
2022-10-14T17:19:19.765Z,1.87
2022-10-14T17:21:47.236Z,2.10
2022-10-14T17:24:15.032Z,1.83
2022-10-14T17:26:41.732Z,1.93
2022-10-14T17:29:08.609Z,1.80
2022-10-14T17:31:37.763Z,1.80
2022-10-14T17:34:05.207Z,1.83
2022-10-14T17:36:31.969Z,1.60
2022-10-14T17:38:59.453Z,1.57
2022-10-14T17:41:28.350Z,1.77
2022-10-14T17:43:56.495Z,1.50
2022-10-14T17:46:24.902Z,1.90
2022-10-14T17:48:53.688Z,1.60
2022-10-14T17:51:25.158Z,1.40
2022-10-14T17:54:00.053Z,1.80
2022-10-14T17:56:28.487Z,1.90
2022-10-14T17:58:57.128Z,1.90
2022-10-14T18:01:37.359Z,1.40
2022-10-14T18:04:10.943Z,1.80
2022-10-14T18:06:37.793Z,1.87
2022-10-14T18:09:09.493Z,1.73
2022-10-14T18:12:07.070Z,1.60
2022-10-14T18:14:27.861Z,2.50
2022-10-14T18:16:54.572Z,2.03
2022-10-14T18:19:21.299Z,1.90
2022-10-14T18:21:48.093Z,2.03
2022-10-14T18:24:14.980Z,2.37
2022-10-14T18:26:41.792Z,1.80
2022-10-14T18:29:09.417Z,1.03
2022-10-14T18:31:36.398Z,1.10
2022-10-14T18:34:03.853Z,1.27
2022-10-14T18:36:33.247Z,1.40
2022-10-14T18:39:02.696Z,1.50
2022-10-14T18:41:29.881Z,1.30
2022-10-14T18:43:58.079Z,1.10
2022-10-14T18:46:31.066Z,1.13
2022-10-14T18:49:00.126Z,1.00
2022-10-14T18:51:29.340Z,1.60
2022-10-14T18:54:03.140Z,1.30
2022-10-14T18:56:33.373Z,1.20
2022-10-14T18:59:07.073Z,1.20
2022-10-14T19:01:34.998Z,1.50
2022-10-14T19:04:04.662Z,1.17
2022-10-14T19:06:32.815Z,1.00
2022-10-14T19:09:02.571Z,1.20
2022-10-14T19:11:30.532Z,1.23
2022-10-14T19:13:59.027Z,1.30
2022-10-14T19:16:35.645Z,1.27
2022-10-14T19:19:11.459Z,0.80
2022-10-14T19:21:39.505Z,1.10
2022-10-14T19:24:08.279Z,0.80
2022-10-14T19:26:37.726Z,0.93
2022-10-14T19:29:09.019Z,1.10
2022-10-14T19:31:38.877Z,0.93
2022-10-14T19:34:07.510Z,1.00
2022-10-14T19:36:36.546Z,0.77
2022-10-14T19:39:04.785Z,1.10
2022-10-14T19:41:33.970Z,1.27
2022-10-14T19:44:01.331Z,1.00
2022-10-14T19:46:29.356Z,1.50
2022-10-14T19:49:02.290Z,1.70
2022-10-14T19:51:29.647Z,1.90
2022-10-14T19:53:57.250Z,1.70
2022-10-14T19:56:25.382Z,2.00
2022-10-14T19:58:54.154Z,2.03
2022-10-14T20:01:25.875Z,1.90
2022-10-14T20:03:53.355Z,2.03
2022-10-14T20:06:21.233Z,2.03
2022-10-14T20:08:47.949Z,1.63
2022-10-14T20:11:17.273Z,1.67
2022-10-14T20:13:47.601Z,1.53
2022-10-14T20:16:14.845Z,1.40
2022-10-14T20:18:41.992Z,1.20
2022-10-14T20:21:11.877Z,1.30
2022-10-14T20:23:38.705Z,1.30
2022-10-14T20:26:10.479Z,1.00
2022-10-14T20:28:38.276Z,1.13
2022-10-14T20:31:09.710Z,1.30
2022-10-14T20:33:36.636Z,0.90
2022-10-14T20:36:13.181Z,1.00
2022-10-14T20:38:41.588Z,1.10
2022-10-14T20:41:15.758Z,0.80
2022-10-14T20:43:43.615Z,0.87
2022-10-14T20:46:10.706Z,1.17
2022-10-14T20:48:37.467Z,1.20
2022-10-14T20:51:09.349Z,1.00
2022-10-14T20:53:36.228Z,1.10
2022-10-14T20:56:05.455Z,1.10
2022-10-14T20:58:32.432Z,1.03
2022-10-14T21:01:08.976Z,1.40
2022-10-14T21:03:35.841Z,1.17
2022-10-14T21:06:05.547Z,1.33
2022-10-14T21:08:32.887Z,1.30
2022-10-14T21:11:07.054Z,1.63
2022-10-14T21:13:36.032Z,1.50
2022-10-14T21:16:12.021Z,1.40
2022-10-14T21:18:38.669Z,1.60
2022-10-14T21:21:05.441Z,1.40
2022-10-14T21:23:33.667Z,1.70
2022-10-14T21:26:00.324Z,1.83
2022-10-14T21:28:27.013Z,2.27
2022-10-14T21:30:53.711Z,1.90
2022-10-14T21:33:20.371Z,2.20
2022-10-14T21:35:47.128Z,1.50
2022-10-14T21:38:13.927Z,1.70
2022-10-14T21:40:40.586Z,1.70
2022-10-14T21:43:07.266Z,1.70
2022-10-14T21:45:34.223Z,1.57
2022-10-14T21:48:00.996Z,1.93
2022-10-14T21:50:27.694Z,1.77
2022-10-14T21:52:54.408Z,1.50
2022-10-14T21:55:21.128Z,1.87
2022-10-14T21:57:48.084Z,1.53
2022-10-14T22:00:14.936Z,1.40
2022-10-14T22:02:41.577Z,1.70
2022-10-14T22:05:08.558Z,1.73
2022-10-14T22:07:35.186Z,2.13
2022-10-14T22:10:01.871Z,1.50
2022-10-14T22:12:29.835Z,1.67
2022-10-14T22:14:56.525Z,2.03
2022-10-14T22:17:23.554Z,2.07
2022-10-14T22:19:50.635Z,2.10
2022-10-14T22:22:17.276Z,2.30
2022-10-14T22:24:43.900Z,1.93
2022-10-14T22:27:10.577Z,2.30
2022-10-14T22:29:37.874Z,2.20
2022-10-14T22:32:04.766Z,1.97
2022-10-14T22:34:31.416Z,1.80
2022-10-14T22:36:59.449Z,2.30
2022-10-14T22:39:27.066Z,2.37
2022-10-14T22:41:53.799Z,2.07
2022-10-14T22:44:20.416Z,2.20
2022-10-14T22:46:47.112Z,2.50
2022-10-14T22:49:13.777Z,1.87
2022-10-14T22:51:40.987Z,1.80
2022-10-14T22:54:07.901Z,1.80
2022-10-14T22:56:34.588Z,2.00
2022-10-14T22:59:06.906Z,1.57
2022-10-14T23:01:33.962Z,1.27
2022-10-14T23:04:01.084Z,1.30
2022-10-14T23:06:28.872Z,1.00
2022-10-14T23:08:56.005Z,0.80
2022-10-14T23:11:24.958Z,0.70
2022-10-14T23:13:51.911Z,0.60
2022-10-14T23:16:21.406Z,1.27
2022-10-14T23:18:49.063Z,0.60
2022-10-14T23:21:24.409Z,0.80
2022-10-14T23:23:52.810Z,0.60
2022-10-14T23:26:22.368Z,0.40
2022-10-14T23:28:50.861Z,0.60
2022-10-14T23:31:20.976Z,0.60
2022-10-14T23:33:49.010Z,0.60
2022-10-14T23:36:16.214Z,0.50
2022-10-14T23:38:43.478Z,0.60
2022-10-14T23:41:12.555Z,0.50
2022-10-14T23:43:39.774Z,0.50
2022-10-14T23:46:07.094Z,0.50
2022-10-14T23:48:34.320Z,0.40
2022-10-14T23:51:01.307Z,0.40
2022-10-14T23:53:28.031Z,0.30
2022-10-14T23:55:56.217Z,0.70
2022-10-14T23:58:23.687Z,0.40
